sensor_id;sensor_type;location;lat;lon;timestamp;P1;durP1;ratioP1;P2;durP2;ratioP2
1354;SDS011;671;48.972;9.276;2022-10-22T00:00:40;0.30;;;0.30;;
1354;SDS011;671;48.972;9.276;2022-10-22T00:03:06;0.40;;;0.40;;
1354;SDS011;671;48.972;9.276;2022-10-22T00:05:33;0.30;;;0.30;;
1354;SDS011;671;48.972;9.276;2022-10-22T00:07:59;0.30;;;0.30;;
1354;SDS011;671;48.972;9.276;2022-10-22T00:10:25;0.40;;;0.30;;
1354;SDS011;671;48.972;9.276;2022-10-22T00:12:52;0.30;;;0.30;;
1354;SDS011;671;48.972;9.276;2022-10-22T00:15:18;0.30;;;0.30;;
1354;SDS011;671;48.972;9.276;2022-10-22T00:17:45;0.30;;;0.20;;
1354;SDS011;671;48.972;9.276;2022-10-22T00:20:12;0.30;;;0.27;;
1354;SDS011;671;48.972;9.276;2022-10-22T00:22:38;0.30;;;0.30;;
1354;SDS011;671;48.972;9.276;2022-10-22T00:25:05;0.33;;;0.33;;
1354;SDS011;671;48.972;9.276;2022-10-22T00:27:31;0.30;;;0.30;;
1354;SDS011;671;48.972;9.276;2022-10-22T00:29:58;0.30;;;0.30;;
1354;SDS011;671;48.972;9.276;2022-10-22T00:32:24;0.40;;;0.40;;
1354;SDS011;671;48.972;9.276;2022-10-22T00:34:51;0.30;;;0.30;;
1354;SDS011;671;48.972;9.276;2022-10-22T00:37:17;0.40;;;0.40;;
1354;SDS011;671;48.972;9.276;2022-10-22T00:39:43;0.30;;;0.30;;
1354;SDS011;671;48.972;9.276;2022-10-22T00:42:15;0.40;;;0.40;;
1354;SDS011;671;48.972;9.276;2022-10-22T00:47:48;0.30;;;0.30;;
1354;SDS011;671;48.972;9.276;2022-10-22T00:52:53;0.30;;;0.30;;
1354;SDS011;671;48.972;9.276;2022-10-22T00:55:21;0.30;;;0.30;;
1354;SDS011;671;48.972;9.276;2022-10-22T00:57:48;0.30;;;0.30;;
1354;SDS011;671;48.972;9.276;2022-10-22T01:00:16;0.33;;;0.33;;
1354;SDS011;671;48.972;9.276;2022-10-22T01:02:42;0.30;;;0.30;;
1354;SDS011;671;48.972;9.276;2022-10-22T01:05:09;0.30;;;0.30;;
1354;SDS011;671;48.972;9.276;2022-10-22T01:07:41;0.30;;;0.20;;
1354;SDS011;671;48.972;9.276;2022-10-22T01:15:27;0.30;;;0.30;;
1354;SDS011;671;48.972;9.276;2022-10-22T01:23:29;0.40;;;0.40;;
1354;SDS011;671;48.972;9.276;2022-10-22T01:28:51;0.30;;;0.20;;
1354;SDS011;671;48.972;9.276;2022-10-22T01:31:19;0.30;;;0.20;;
1354;SDS011;671;48.972;9.276;2022-10-22T01:33:47;0.30;;;0.30;;
1354;SDS011;671;48.972;9.276;2022-10-22T01:36:16;0.30;;;0.30;;
1354;SDS011;671;48.972;9.276;2022-10-22T01:38:44;0.30;;;0.20;;
1354;SDS011;671;48.972;9.276;2022-10-22T01:41:11;0.30;;;0.30;;
1354;SDS011;671;48.972;9.276;2022-10-22T01:43:39;0.30;;;0.30;;
1354;SDS011;671;48.972;9.276;2022-10-22T01:46:05;0.30;;;0.30;;
1354;SDS011;671;48.972;9.276;2022-10-22T01:54:06;0.30;;;0.30;;
1354;SDS011;671;48.972;9.276;2022-10-22T02:07:33;0.30;;;0.30;;
1354;SDS011;671;48.972;9.276;2022-10-22T02:10:06;0.30;;;0.30;;
1354;SDS011;671;48.972;9.276;2022-10-22T02:12:34;0.40;;;0.33;;
1354;SDS011;671;48.972;9.276;2022-10-22T02:15:03;0.30;;;0.30;;
1354;SDS011;671;48.972;9.276;2022-10-22T02:17:30;0.40;;;0.40;;
1354;SDS011;671;48.972;9.276;2022-10-22T02:20:00;0.30;;;0.30;;
1354;SDS011;671;48.972;9.276;2022-10-22T02:22:32;0.30;;;0.23;;
1354;SDS011;671;48.972;9.276;2022-10-22T02:24:59;0.30;;;0.30;;
1354;SDS011;671;48.972;9.276;2022-10-22T02:27:27;0.30;;;0.20;;
1354;SDS011;671;48.972;9.276;2022-10-22T02:32:27;0.33;;;0.30;;
1354;SDS011;671;48.972;9.276;2022-10-22T02:34:57;0.30;;;0.30;;
1354;SDS011;671;48.972;9.276;2022-10-22T02:37:25;0.40;;;0.40;;
1354;SDS011;671;48.972;9.276;2022-10-22T02:39:52;0.40;;;0.40;;
1354;SDS011;671;48.972;9.276;2022-10-22T02:42:22;0.40;;;0.40;;
1354;SDS011;671;48.972;9.276;2022-10-22T02:44:51;0.30;;;0.30;;
1354;SDS011;671;48.972;9.276;2022-10-22T02:47:17;0.30;;;0.30;;
1354;SDS011;671;48.972;9.276;2022-10-22T02:49:44;0.30;;;0.30;;
1354;SDS011;671;48.972;9.276;2022-10-22T02:52:10;0.30;;;0.30;;
1354;SDS011;671;48.972;9.276;2022-10-22T02:54:37;0.30;;;0.30;;
1354;SDS011;671;48.972;9.276;2022-10-22T02:57:03;0.40;;;0.40;;
1354;SDS011;671;48.972;9.276;2022-10-22T02:59:30;0.30;;;0.30;;
1354;SDS011;671;48.972;9.276;2022-10-22T03:01:56;0.40;;;0.40;;
1354;SDS011;671;48.972;9.276;2022-10-22T03:04:23;0.40;;;0.40;;
1354;SDS011;671;48.972;9.276;2022-10-22T03:06:49;0.40;;;0.40;;
1354;SDS011;671;48.972;9.276;2022-10-22T03:09:16;0.30;;;0.30;;
1354;SDS011;671;48.972;9.276;2022-10-22T03:11:42;0.30;;;0.30;;
1354;SDS011;671;48.972;9.276;2022-10-22T03:14:09;0.30;;;0.30;;
1354;SDS011;671;48.972;9.276;2022-10-22T03:16:35;0.30;;;0.30;;
1354;SDS011;671;48.972;9.276;2022-10-22T03:19:02;0.30;;;0.30;;
1354;SDS011;671;48.972;9.276;2022-10-22T03:21:31;0.30;;;0.30;;
1354;SDS011;671;48.972;9.276;2022-10-22T03:24:02;0.40;;;0.40;;
1354;SDS011;671;48.972;9.276;2022-10-22T03:26:33;0.40;;;0.40;;
1354;SDS011;671;48.972;9.276;2022-10-22T03:29:01;0.40;;;0.40;;
1354;SDS011;671;48.972;9.276;2022-10-22T03:31:28;0.30;;;0.30;;
1354;SDS011;671;48.972;9.276;2022-10-22T03:33:54;0.30;;;0.30;;
1354;SDS011;671;48.972;9.276;2022-10-22T03:36:21;0.30;;;0.30;;
1354;SDS011;671;48.972;9.276;2022-10-22T03:38:47;0.30;;;0.30;;
1354;SDS011;671;48.972;9.276;2022-10-22T03:41:14;0.40;;;0.30;;
1354;SDS011;671;48.972;9.276;2022-10-22T03:43:40;0.30;;;0.30;;
1354;SDS011;671;48.972;9.276;2022-10-22T03:46:07;0.40;;;0.40;;
1354;SDS011;671;48.972;9.276;2022-10-22T03:48:33;0.30;;;0.30;;
1354;SDS011;671;48.972;9.276;2022-10-22T03:51:00;0.40;;;0.40;;
1354;SDS011;671;48.972;9.276;2022-10-22T03:53:27;0.30;;;0.30;;
1354;SDS011;671;48.972;9.276;2022-10-22T03:55:53;0.30;;;0.30;;
1354;SDS011;671;48.972;9.276;2022-10-22T03:58:20;0.30;;;0.30;;
1354;SDS011;671;48.972;9.276;2022-10-22T04:00:46;0.30;;;0.30;;
1354;SDS011;671;48.972;9.276;2022-10-22T04:03:13;0.30;;;0.30;;
1354;SDS011;671;48.972;9.276;2022-10-22T04:05:39;0.33;;;0.33;;
1354;SDS011;671;48.972;9.276;2022-10-22T04:08:05;0.40;;;0.40;;
1354;SDS011;671;48.972;9.276;2022-10-22T04:10:32;0.30;;;0.27;;
1354;SDS011;671;48.972;9.276;2022-10-22T04:12:58;0.40;;;0.40;;
1354;SDS011;671;48.972;9.276;2022-10-22T04:15:25;0.30;;;0.30;;
1354;SDS011;671;48.972;9.276;2022-10-22T04:17:53;0.40;;;0.40;;
1354;SDS011;671;48.972;9.276;2022-10-22T04:20:20;0.40;;;0.40;;
1354;SDS011;671;48.972;9.276;2022-10-22T04:22:46;0.40;;;0.30;;
1354;SDS011;671;48.972;9.276;2022-10-22T04:25:13;0.30;;;0.23;;
1354;SDS011;671;48.972;9.276;2022-10-22T04:27:39;0.30;;;0.30;;
1354;SDS011;671;48.972;9.276;2022-10-22T04:30:06;0.30;;;0.30;;
1354;SDS011;671;48.972;9.276;2022-10-22T04:32:33;0.40;;;0.30;;
1354;SDS011;671;48.972;9.276;2022-10-22T04:34:59;0.30;;;0.30;;
1354;SDS011;671;48.972;9.276;2022-10-22T04:37:26;0.40;;;0.40;;
1354;SDS011;671;48.972;9.276;2022-10-22T04:39:52;0.40;;;0.30;;
1354;SDS011;671;48.972;9.276;2022-10-22T04:42:18;0.30;;;0.30;;
1354;SDS011;671;48.972;9.276;2022-10-22T04:44:45;0.40;;;0.40;;
1354;SDS011;671;48.972;9.276;2022-10-22T04:47:11;0.30;;;0.30;;
1354;SDS011;671;48.972;9.276;2022-10-22T04:49:38;0.30;;;0.30;;
1354;SDS011;671;48.972;9.276;2022-10-22T04:52:05;0.40;;;0.40;;
1354;SDS011;671;48.972;9.276;2022-10-22T04:54:32;0.40;;;0.40;;
1354;SDS011;671;48.972;9.276;2022-10-22T04:56:58;0.30;;;0.30;;
1354;SDS011;671;48.972;9.276;2022-10-22T04:59:25;0.30;;;0.30;;
1354;SDS011;671;48.972;9.276;2022-10-22T05:01:51;0.40;;;0.40;;
1354;SDS011;671;48.972;9.276;2022-10-22T05:04:18;0.40;;;0.40;;
1354;SDS011;671;48.972;9.276;2022-10-22T05:06:44;0.30;;;0.30;;
1354;SDS011;671;48.972;9.276;2022-10-22T05:09:20;0.30;;;0.30;;
1354;SDS011;671;48.972;9.276;2022-10-22T05:11:47;0.30;;;0.30;;
1354;SDS011;671;48.972;9.276;2022-10-22T05:14:19;0.30;;;0.30;;
1354;SDS011;671;48.972;9.276;2022-10-22T05:16:48;0.30;;;0.30;;
1354;SDS011;671;48.972;9.276;2022-10-22T05:19:25;0.30;;;0.30;;
1354;SDS011;671;48.972;9.276;2022-10-22T05:21:53;0.30;;;0.30;;
1354;SDS011;671;48.972;9.276;2022-10-22T05:24:21;0.30;;;0.30;;
1354;SDS011;671;48.972;9.276;2022-10-22T05:26:51;0.40;;;0.40;;
1354;SDS011;671;48.972;9.276;2022-10-22T05:29:19;0.30;;;0.30;;
1354;SDS011;671;48.972;9.276;2022-10-22T05:31:46;0.40;;;0.40;;
1354;SDS011;671;48.972;9.276;2022-10-22T05:34:13;0.40;;;0.33;;
1354;SDS011;671;48.972;9.276;2022-10-22T05:36:39;0.40;;;0.40;;
1354;SDS011;671;48.972;9.276;2022-10-22T05:39:06;0.30;;;0.30;;
1354;SDS011;671;48.972;9.276;2022-10-22T05:41:33;0.30;;;0.30;;
1354;SDS011;671;48.972;9.276;2022-10-22T05:44:00;0.50;;;0.50;;
1354;SDS011;671;48.972;9.276;2022-10-22T05:46:29;0.40;;;0.40;;
1354;SDS011;671;48.972;9.276;2022-10-22T05:48:59;0.30;;;0.30;;
1354;SDS011;671;48.972;9.276;2022-10-22T05:51:27;0.30;;;0.30;;
1354;SDS011;671;48.972;9.276;2022-10-22T05:54:00;0.40;;;0.40;;
1354;SDS011;671;48.972;9.276;2022-10-22T05:56:29;0.40;;;0.40;;
1354;SDS011;671;48.972;9.276;2022-10-22T05:58:56;0.50;;;0.50;;
1354;SDS011;671;48.972;9.276;2022-10-22T06:01:25;0.40;;;0.40;;
1354;SDS011;671;48.972;9.276;2022-10-22T06:03:54;0.40;;;0.40;;
1354;SDS011;671;48.972;9.276;2022-10-22T06:06:28;0.40;;;0.40;;
1354;SDS011;671;48.972;9.276;2022-10-22T06:09:05;0.40;;;0.40;;
1354;SDS011;671;48.972;9.276;2022-10-22T06:11:50;0.40;;;0.33;;
1354;SDS011;671;48.972;9.276;2022-10-22T06:14:17;0.40;;;0.40;;
1354;SDS011;671;48.972;9.276;2022-10-22T06:16:45;0.40;;;0.40;;
1354;SDS011;671;48.972;9.276;2022-10-22T06:19:12;0.40;;;0.30;;
1354;SDS011;671;48.972;9.276;2022-10-22T06:21:39;0.40;;;0.40;;
1354;SDS011;671;48.972;9.276;2022-10-22T06:24:06;0.30;;;0.30;;
1354;SDS011;671;48.972;9.276;2022-10-22T06:26:34;0.40;;;0.40;;
1354;SDS011;671;48.972;9.276;2022-10-22T06:29:01;0.40;;;0.40;;
1354;SDS011;671;48.972;9.276;2022-10-22T06:31:27;0.40;;;0.40;;
1354;SDS011;671;48.972;9.276;2022-10-22T06:33:57;0.40;;;0.40;;
1354;SDS011;671;48.972;9.276;2022-10-22T06:36:24;0.40;;;0.40;;
1354;SDS011;671;48.972;9.276;2022-10-22T06:38:51;0.30;;;0.30;;
1354;SDS011;671;48.972;9.276;2022-10-22T06:41:18;0.33;;;0.33;;
1354;SDS011;671;48.972;9.276;2022-10-22T06:43:45;0.40;;;0.40;;
1354;SDS011;671;48.972;9.276;2022-10-22T06:46:13;0.40;;;0.40;;
1354;SDS011;671;48.972;9.276;2022-10-22T06:48:51;0.40;;;0.40;;
1354;SDS011;671;48.972;9.276;2022-10-22T06:51:22;0.30;;;0.30;;
1354;SDS011;671;48.972;9.276;2022-10-22T06:53:48;0.50;;;0.50;;
1354;SDS011;671;48.972;9.276;2022-10-22T06:56:16;0.40;;;0.40;;
1354;SDS011;671;48.972;9.276;2022-10-22T06:58:47;0.40;;;0.40;;
1354;SDS011;671;48.972;9.276;2022-10-22T07:01:15;0.40;;;0.40;;
1354;SDS011;671;48.972;9.276;2022-10-22T07:03:44;0.30;;;0.30;;
1354;SDS011;671;48.972;9.276;2022-10-22T07:06:12;0.40;;;0.40;;
1354;SDS011;671;48.972;9.276;2022-10-22T07:08:39;0.30;;;0.30;;
1354;SDS011;671;48.972;9.276;2022-10-22T07:11:10;0.40;;;0.40;;
1354;SDS011;671;48.972;9.276;2022-10-22T07:13:39;0.30;;;0.30;;
1354;SDS011;671;48.972;9.276;2022-10-22T07:16:06;0.30;;;0.30;;
1354;SDS011;671;48.972;9.276;2022-10-22T07:18:33;0.30;;;0.20;;
1354;SDS011;671;48.972;9.276;2022-10-22T07:20:59;0.30;;;0.30;;
1354;SDS011;671;48.972;9.276;2022-10-22T07:23:27;0.30;;;0.30;;
1354;SDS011;671;48.972;9.276;2022-10-22T07:25:54;0.30;;;0.30;;
1354;SDS011;671;48.972;9.276;2022-10-22T07:28:20;0.30;;;0.30;;
1354;SDS011;671;48.972;9.276;2022-10-22T07:30:47;0.40;;;0.40;;
1354;SDS011;671;48.972;9.276;2022-10-22T07:33:14;0.30;;;0.20;;
1354;SDS011;671;48.972;9.276;2022-10-22T07:35:41;0.30;;;0.20;;
1354;SDS011;671;48.972;9.276;2022-10-22T07:38:08;0.30;;;0.30;;
1354;SDS011;671;48.972;9.276;2022-10-22T07:40:35;0.40;;;0.40;;
1354;SDS011;671;48.972;9.276;2022-10-22T07:43:01;0.30;;;0.23;;
1354;SDS011;671;48.972;9.276;2022-10-22T07:45:28;0.30;;;0.30;;
1354;SDS011;671;48.972;9.276;2022-10-22T07:47:55;0.30;;;0.20;;
1354;SDS011;671;48.972;9.276;2022-10-22T07:50:21;0.30;;;0.30;;
1354;SDS011;671;48.972;9.276;2022-10-22T07:52:48;0.30;;;0.30;;
1354;SDS011;671;48.972;9.276;2022-10-22T07:55:14;0.30;;;0.30;;
1354;SDS011;671;48.972;9.276;2022-10-22T07:57:41;0.30;;;0.30;;
1354;SDS011;671;48.972;9.276;2022-10-22T08:00:07;0.30;;;0.30;;
1354;SDS011;671;48.972;9.276;2022-10-22T08:02:34;0.30;;;0.30;;
1354;SDS011;671;48.972;9.276;2022-10-22T08:05:01;0.30;;;0.30;;
1354;SDS011;671;48.972;9.276;2022-10-22T08:07:28;0.30;;;0.20;;
1354;SDS011;671;48.972;9.276;2022-10-22T08:09:54;0.30;;;0.20;;
1354;SDS011;671;48.972;9.276;2022-10-22T08:12:21;0.30;;;0.30;;
1354;SDS011;671;48.972;9.276;2022-10-22T08:14:47;0.30;;;0.30;;
1354;SDS011;671;48.972;9.276;2022-10-22T08:17:14;0.30;;;0.20;;
1354;SDS011;671;48.972;9.276;2022-10-22T08:19:40;0.30;;;0.30;;
1354;SDS011;671;48.972;9.276;2022-10-22T08:22:07;0.30;;;0.30;;
1354;SDS011;671;48.972;9.276;2022-10-22T08:24:33;0.30;;;0.20;;
1354;SDS011;671;48.972;9.276;2022-10-22T08:27:00;0.30;;;0.20;;
1354;SDS011;671;48.972;9.276;2022-10-22T08:29:27;0.30;;;0.20;;
1354;SDS011;671;48.972;9.276;2022-10-22T08:31:53;0.30;;;0.30;;
1354;SDS011;671;48.972;9.276;2022-10-22T08:34:20;0.30;;;0.20;;
1354;SDS011;671;48.972;9.276;2022-10-22T08:36:46;0.30;;;0.30;;
1354;SDS011;671;48.972;9.276;2022-10-22T08:39:13;0.30;;;0.30;;
1354;SDS011;671;48.972;9.276;2022-10-22T08:41:52;0.30;;;0.20;;
1354;SDS011;671;48.972;9.276;2022-10-22T08:45:05;0.30;;;0.30;;
1354;SDS011;671;48.972;9.276;2022-10-22T08:50:36;0.30;;;0.27;;
1354;SDS011;671;48.972;9.276;2022-10-22T08:53:07;0.30;;;0.20;;
1354;SDS011;671;48.972;9.276;2022-10-22T08:55:38;0.30;;;0.20;;
1354;SDS011;671;48.972;9.276;2022-10-22T08:58:20;0.30;;;0.30;;
1354;SDS011;671;48.972;9.276;2022-10-22T09:01:09;0.30;;;0.30;;
1354;SDS011;671;48.972;9.276;2022-10-22T09:03:45;0.30;;;0.20;;
1354;SDS011;671;48.972;9.276;2022-10-22T09:06:26;0.30;;;0.20;;
1354;SDS011;671;48.972;9.276;2022-10-22T09:08:55;0.30;;;0.20;;
1354;SDS011;671;48.972;9.276;2022-10-22T09:14:03;0.30;;;0.20;;
1354;SDS011;671;48.972;9.276;2022-10-22T09:21:42;0.30;;;0.20;;
1354;SDS011;671;48.972;9.276;2022-10-22T09:24:35;0.30;;;0.20;;
1354;SDS011;671;48.972;9.276;2022-10-22T09:27:14;0.30;;;0.20;;
1354;SDS011;671;48.972;9.276;2022-10-22T09:29:46;0.30;;;0.20;;
1354;SDS011;671;48.972;9.276;2022-10-22T09:32:14;0.30;;;0.30;;
1354;SDS011;671;48.972;9.276;2022-10-22T09:34:45;0.30;;;0.20;;
1354;SDS011;671;48.972;9.276;2022-10-22T09:37:15;0.30;;;0.20;;
1354;SDS011;671;48.972;9.276;2022-10-22T09:39:44;0.30;;;0.20;;
1354;SDS011;671;48.972;9.276;2022-10-22T09:42:15;0.30;;;0.30;;
1354;SDS011;671;48.972;9.276;2022-10-22T09:44:43;0.30;;;0.20;;
1354;SDS011;671;48.972;9.276;2022-10-22T09:52:33;0.30;;;0.20;;
1354;SDS011;671;48.972;9.276;2022-10-22T09:55:05;0.30;;;0.20;;
1354;SDS011;671;48.972;9.276;2022-10-22T09:57:38;0.30;;;0.20;;
1354;SDS011;671;48.972;9.276;2022-10-22T10:00:09;0.30;;;0.20;;
1354;SDS011;671;48.972;9.276;2022-10-22T10:02:40;0.30;;;0.20;;
1354;SDS011;671;48.972;9.276;2022-10-22T10:05:11;0.30;;;0.20;;
1354;SDS011;671;48.972;9.276;2022-10-22T10:07:43;0.30;;;0.20;;
1354;SDS011;671;48.972;9.276;2022-10-22T10:10:16;0.30;;;0.20;;
1354;SDS011;671;48.972;9.276;2022-10-22T10:19:10;0.30;;;0.20;;
1354;SDS011;671;48.972;9.276;2022-10-22T10:27:25;0.30;;;0.30;;
1354;SDS011;671;48.972;9.276;2022-10-22T10:30:16;0.30;;;0.30;;
1354;SDS011;671;48.972;9.276;2022-10-22T10:38:35;0.30;;;0.20;;
1354;SDS011;671;48.972;9.276;2022-10-22T10:46:54;0.30;;;0.20;;
1354;SDS011;671;48.972;9.276;2022-10-22T10:49:39;0.30;;;0.20;;
1354;SDS011;671;48.972;9.276;2022-10-22T10:57:42;0.30;;;0.30;;
1354;SDS011;671;48.972;9.276;2022-10-22T11:00:17;0.30;;;0.20;;
1354;SDS011;671;48.972;9.276;2022-10-22T11:05:59;0.30;;;0.20;;
1354;SDS011;671;48.972;9.276;2022-10-22T11:11:02;0.30;;;0.20;;
1354;SDS011;671;48.972;9.276;2022-10-22T11:13:30;0.30;;;0.20;;
1354;SDS011;671;48.972;9.276;2022-10-22T11:19:08;0.30;;;0.20;;
1354;SDS011;671;48.972;9.276;2022-10-22T11:21:55;0.30;;;0.20;;
1354;SDS011;671;48.972;9.276;2022-10-22T11:24:34;0.30;;;0.20;;
1354;SDS011;671;48.972;9.276;2022-10-22T11:30:21;0.30;;;0.20;;
1354;SDS011;671;48.972;9.276;2022-10-22T11:32:50;0.30;;;0.20;;
1354;SDS011;671;48.972;9.276;2022-10-22T11:35:24;0.30;;;0.20;;
1354;SDS011;671;48.972;9.276;2022-10-22T11:38:13;0.30;;;0.20;;
1354;SDS011;671;48.972;9.276;2022-10-22T11:40:46;0.30;;;0.20;;
1354;SDS011;671;48.972;9.276;2022-10-22T11:43:27;0.30;;;0.20;;
1354;SDS011;671;48.972;9.276;2022-10-22T11:48:42;0.30;;;0.20;;
1354;SDS011;671;48.972;9.276;2022-10-22T11:56:57;0.30;;;0.20;;
1354;SDS011;671;48.972;9.276;2022-10-22T12:07:50;0.30;;;0.20;;
1354;SDS011;671;48.972;9.276;2022-10-22T12:10:27;0.30;;;0.20;;
1354;SDS011;671;48.972;9.276;2022-10-22T12:16:17;0.30;;;0.20;;
1354;SDS011;671;48.972;9.276;2022-10-22T12:18:48;0.30;;;0.20;;
1354;SDS011;671;48.972;9.276;2022-10-22T12:21:20;0.30;;;0.20;;
1354;SDS011;671;48.972;9.276;2022-10-22T12:23:46;0.30;;;0.20;;
1354;SDS011;671;48.972;9.276;2022-10-22T12:26:36;0.30;;;0.10;;
1354;SDS011;671;48.972;9.276;2022-10-22T12:29:05;0.30;;;0.20;;
1354;SDS011;671;48.972;9.276;2022-10-22T12:31:36;0.30;;;0.20;;
1354;SDS011;671;48.972;9.276;2022-10-22T12:34:03;0.30;;;0.20;;
1354;SDS011;671;48.972;9.276;2022-10-22T12:36:33;0.30;;;0.20;;
1354;SDS011;671;48.972;9.276;2022-10-22T12:39:03;0.30;;;0.20;;
1354;SDS011;671;48.972;9.276;2022-10-22T12:41:35;0.30;;;0.20;;
1354;SDS011;671;48.972;9.276;2022-10-22T12:44:04;0.30;;;0.20;;
1354;SDS011;671;48.972;9.276;2022-10-22T12:46:32;0.30;;;0.20;;
1354;SDS011;671;48.972;9.276;2022-10-22T12:49:01;0.30;;;0.20;;
1354;SDS011;671;48.972;9.276;2022-10-22T12:51:30;0.30;;;0.20;;
1354;SDS011;671;48.972;9.276;2022-10-22T12:53:59;0.30;;;0.20;;
1354;SDS011;671;48.972;9.276;2022-10-22T12:56:32;0.30;;;0.20;;
1354;SDS011;671;48.972;9.276;2022-10-22T12:59:19;0.30;;;0.20;;
1354;SDS011;671;48.972;9.276;2022-10-22T13:01:53;0.30;;;0.20;;
1354;SDS011;671;48.972;9.276;2022-10-22T13:04:29;0.30;;;0.20;;
1354;SDS011;671;48.972;9.276;2022-10-22T13:07:05;0.30;;;0.20;;
1354;SDS011;671;48.972;9.276;2022-10-22T13:09:42;0.30;;;0.20;;
1354;SDS011;671;48.972;9.276;2022-10-22T13:12:25;0.30;;;0.20;;
1354;SDS011;671;48.972;9.276;2022-10-22T13:14:53;0.30;;;0.20;;
1354;SDS011;671;48.972;9.276;2022-10-22T13:17:35;0.30;;;0.20;;
1354;SDS011;671;48.972;9.276;2022-10-22T13:20:17;0.30;;;0.20;;
1354;SDS011;671;48.972;9.276;2022-10-22T13:25:27;0.30;;;0.20;;
1354;SDS011;671;48.972;9.276;2022-10-22T13:30:26;0.30;;;0.20;;
1354;SDS011;671;48.972;9.276;2022-10-22T13:32:55;0.30;;;0.20;;
1354;SDS011;671;48.972;9.276;2022-10-22T13:35:33;0.30;;;0.20;;
1354;SDS011;671;48.972;9.276;2022-10-22T13:38:02;0.30;;;0.20;;
1354;SDS011;671;48.972;9.276;2022-10-22T13:40:39;0.30;;;0.20;;
1354;SDS011;671;48.972;9.276;2022-10-22T13:43:06;0.30;;;0.20;;
1354;SDS011;671;48.972;9.276;2022-10-22T13:45:32;0.30;;;0.20;;
1354;SDS011;671;48.972;9.276;2022-10-22T13:47:59;0.30;;;0.20;;
1354;SDS011;671;48.972;9.276;2022-10-22T13:50:25;0.30;;;0.20;;
1354;SDS011;671;48.972;9.276;2022-10-22T13:52:53;0.30;;;0.20;;
1354;SDS011;671;48.972;9.276;2022-10-22T13:55:27;0.30;;;0.20;;
1354;SDS011;671;48.972;9.276;2022-10-22T13:57:55;0.30;;;0.20;;
1354;SDS011;671;48.972;9.276;2022-10-22T14:00:28;0.30;;;0.20;;
1354;SDS011;671;48.972;9.276;2022-10-22T14:02:55;0.30;;;0.20;;
1354;SDS011;671;48.972;9.276;2022-10-22T14:05:24;0.30;;;0.20;;
1354;SDS011;671;48.972;9.276;2022-10-22T14:07:50;0.30;;;0.20;;
1354;SDS011;671;48.972;9.276;2022-10-22T14:10:18;0.30;;;0.20;;
1354;SDS011;671;48.972;9.276;2022-10-22T14:12:47;0.30;;;0.20;;
1354;SDS011;671;48.972;9.276;2022-10-22T14:15:15;0.30;;;0.20;;
1354;SDS011;671;48.972;9.276;2022-10-22T14:17:44;0.30;;;0.20;;
1354;SDS011;671;48.972;9.276;2022-10-22T14:20:18;0.30;;;0.20;;
1354;SDS011;671;48.972;9.276;2022-10-22T14:22:49;0.30;;;0.20;;
1354;SDS011;671;48.972;9.276;2022-10-22T14:25:17;0.30;;;0.20;;
1354;SDS011;671;48.972;9.276;2022-10-22T14:27:51;0.30;;;0.20;;
1354;SDS011;671;48.972;9.276;2022-10-22T14:30:18;0.30;;;0.20;;
1354;SDS011;671;48.972;9.276;2022-10-22T14:32:46;0.30;;;0.20;;
1354;SDS011;671;48.972;9.276;2022-10-22T14:35:15;0.30;;;0.10;;
1354;SDS011;671;48.972;9.276;2022-10-22T14:37:45;0.30;;;0.20;;
1354;SDS011;671;48.972;9.276;2022-10-22T14:40:12;0.30;;;0.10;;
1354;SDS011;671;48.972;9.276;2022-10-22T14:42:41;0.30;;;0.20;;
1354;SDS011;671;48.972;9.276;2022-10-22T14:45:16;0.30;;;0.20;;
1354;SDS011;671;48.972;9.276;2022-10-22T14:47:46;0.30;;;0.20;;
1354;SDS011;671;48.972;9.276;2022-10-22T14:50:13;0.30;;;0.20;;
1354;SDS011;671;48.972;9.276;2022-10-22T14:52:40;0.30;;;0.10;;
1354;SDS011;671;48.972;9.276;2022-10-22T14:55:08;0.30;;;0.20;;
1354;SDS011;671;48.972;9.276;2022-10-22T14:57:35;0.30;;;0.20;;
1354;SDS011;671;48.972;9.276;2022-10-22T15:00:04;0.30;;;0.20;;
1354;SDS011;671;48.972;9.276;2022-10-22T15:02:32;0.30;;;0.20;;
1354;SDS011;671;48.972;9.276;2022-10-22T15:04:59;0.30;;;0.20;;
1354;SDS011;671;48.972;9.276;2022-10-22T15:07:25;0.30;;;0.20;;
1354;SDS011;671;48.972;9.276;2022-10-22T15:09:52;0.30;;;0.20;;
1354;SDS011;671;48.972;9.276;2022-10-22T15:12:19;0.30;;;0.20;;
1354;SDS011;671;48.972;9.276;2022-10-22T15:14:46;0.30;;;0.20;;
1354;SDS011;671;48.972;9.276;2022-10-22T15:17:13;0.30;;;0.20;;
1354;SDS011;671;48.972;9.276;2022-10-22T15:19:40;0.30;;;0.20;;
1354;SDS011;671;48.972;9.276;2022-10-22T15:22:08;0.30;;;0.20;;
1354;SDS011;671;48.972;9.276;2022-10-22T15:24:35;0.30;;;0.20;;
1354;SDS011;671;48.972;9.276;2022-10-22T15:27:02;0.30;;;0.20;;
1354;SDS011;671;48.972;9.276;2022-10-22T15:29:29;0.30;;;0.20;;
1354;SDS011;671;48.972;9.276;2022-10-22T15:31:57;0.30;;;0.20;;
1354;SDS011;671;48.972;9.276;2022-10-22T15:34:25;0.30;;;0.20;;
1354;SDS011;671;48.972;9.276;2022-10-22T15:36:53;0.30;;;0.20;;
1354;SDS011;671;48.972;9.276;2022-10-22T15:39:21;0.30;;;0.20;;
1354;SDS011;671;48.972;9.276;2022-10-22T15:41:48;0.30;;;0.20;;
1354;SDS011;671;48.972;9.276;2022-10-22T15:44:22;0.30;;;0.20;;
1354;SDS011;671;48.972;9.276;2022-10-22T15:46:50;0.30;;;0.20;;
1354;SDS011;671;48.972;9.276;2022-10-22T15:49:20;0.30;;;0.20;;
1354;SDS011;671;48.972;9.276;2022-10-22T15:51:51;0.30;;;0.20;;
1354;SDS011;671;48.972;9.276;2022-10-22T15:54:19;0.30;;;0.20;;
1354;SDS011;671;48.972;9.276;2022-10-22T15:56:48;0.30;;;0.20;;
1354;SDS011;671;48.972;9.276;2022-10-22T15:59:15;0.30;;;0.20;;
1354;SDS011;671;48.972;9.276;2022-10-22T16:01:42;0.30;;;0.20;;
1354;SDS011;671;48.972;9.276;2022-10-22T16:04:09;0.30;;;0.20;;
1354;SDS011;671;48.972;9.276;2022-10-22T16:06:37;0.30;;;0.20;;
1354;SDS011;671;48.972;9.276;2022-10-22T16:09:16;0.30;;;0.20;;
1354;SDS011;671;48.972;9.276;2022-10-22T16:11:47;0.30;;;0.20;;
1354;SDS011;671;48.972;9.276;2022-10-22T16:14:15;0.30;;;0.20;;
1354;SDS011;671;48.972;9.276;2022-10-22T16:16:44;0.30;;;0.20;;
1354;SDS011;671;48.972;9.276;2022-10-22T16:19:12;0.30;;;0.20;;
1354;SDS011;671;48.972;9.276;2022-10-22T16:21:40;0.30;;;0.20;;
1354;SDS011;671;48.972;9.276;2022-10-22T16:24:07;0.30;;;0.20;;
1354;SDS011;671;48.972;9.276;2022-10-22T16:26:34;0.30;;;0.20;;
1354;SDS011;671;48.972;9.276;2022-10-22T16:29:01;0.30;;;0.20;;
1354;SDS011;671;48.972;9.276;2022-10-22T16:31:29;0.30;;;0.20;;
1354;SDS011;671;48.972;9.276;2022-10-22T16:33:56;0.30;;;0.20;;
1354;SDS011;671;48.972;9.276;2022-10-22T16:36:22;0.30;;;0.20;;
1354;SDS011;671;48.972;9.276;2022-10-22T16:38:49;0.30;;;0.20;;
1354;SDS011;671;48.972;9.276;2022-10-22T16:41:17;0.30;;;0.20;;
1354;SDS011;671;48.972;9.276;2022-10-22T16:43:48;0.30;;;0.20;;
1354;SDS011;671;48.972;9.276;2022-10-22T16:46:16;0.30;;;0.20;;
1354;SDS011;671;48.972;9.276;2022-10-22T16:48:45;0.30;;;0.20;;
1354;SDS011;671;48.972;9.276;2022-10-22T16:51:16;0.30;;;0.30;;
1354;SDS011;671;48.972;9.276;2022-10-22T16:53:48;0.30;;;0.20;;
1354;SDS011;671;48.972;9.276;2022-10-22T16:56:17;0.30;;;0.30;;
1354;SDS011;671;48.972;9.276;2022-10-22T16:58:45;0.30;;;0.20;;
1354;SDS011;671;48.972;9.276;2022-10-22T17:01:13;0.30;;;0.20;;
1354;SDS011;671;48.972;9.276;2022-10-22T17:03:41;0.30;;;0.30;;
1354;SDS011;671;48.972;9.276;2022-10-22T17:06:07;0.30;;;0.20;;
1354;SDS011;671;48.972;9.276;2022-10-22T17:08:34;0.30;;;0.20;;
1354;SDS011;671;48.972;9.276;2022-10-22T17:11:05;0.30;;;0.20;;
1354;SDS011;671;48.972;9.276;2022-10-22T17:13:33;0.30;;;0.30;;
1354;SDS011;671;48.972;9.276;2022-10-22T17:16:01;0.30;;;0.20;;
1354;SDS011;671;48.972;9.276;2022-10-22T17:18:32;0.30;;;0.20;;
1354;SDS011;671;48.972;9.276;2022-10-22T17:21:00;0.30;;;0.20;;
1354;SDS011;671;48.972;9.276;2022-10-22T17:23:29;0.30;;;0.20;;
1354;SDS011;671;48.972;9.276;2022-10-22T17:25:56;0.30;;;0.30;;
1354;SDS011;671;48.972;9.276;2022-10-22T17:28:31;0.30;;;0.20;;
1354;SDS011;671;48.972;9.276;2022-10-22T17:31:05;0.30;;;0.20;;
1354;SDS011;671;48.972;9.276;2022-10-22T17:33:32;0.30;;;0.20;;
1354;SDS011;671;48.972;9.276;2022-10-22T17:36:00;0.30;;;0.20;;
1354;SDS011;671;48.972;9.276;2022-10-22T17:38:27;0.30;;;0.20;;
1354;SDS011;671;48.972;9.276;2022-10-22T17:40:53;0.30;;;0.20;;
1354;SDS011;671;48.972;9.276;2022-10-22T17:43:22;0.30;;;0.30;;